Time;durP1;ratioP1;P1;durP2;ratioP2;P2;SDS_P1;SDS_P2;PMS_P1;PMS_P2;Temp;Humidity;BMP_temperature;BMP_pressure;BME280_temperature;BME280_humidity;BME280_pressure;Samples;Min_cycle;Max_cycle;Signal;HPM_P1;HPM_P2
2022/09/16 00:02:27;;;;;;;2.10;1.40;;;12.30;99.90;;;;;;5242892;28;20189;-48
2022/09/16 00:04:58;;;;;;;4.23;1.23;;;12.30;99.90;;;;;;5245473;28;20225;-48
2022/09/16 00:07:29;;;;;;;2.30;1.20;;;12.30;99.90;;;;;;5244599;28;20185;-48
2022/09/16 00:09:59;;;;;;;1.97;1.60;;;12.20;99.90;;;;;;5232569;28;20642;-48
2022/09/16 00:12:30;;;;;;;1.00;1.00;;;12.10;99.90;;;;;;5248169;28;20519;-48
2022/09/16 00:15:01;;;;;;;1.90;1.63;;;12.10;99.90;;;;;;5249053;28;20198;-48
2022/09/16 00:17:33;;;;;;;2.30;1.17;;;12.00;99.90;;;;;;5254636;28;20983;-47
2022/09/16 00:20:05;;;;;;;4.23;1.30;;;12.00;99.90;;;;;;5250189;28;20186;-48
2022/09/16 00:22:36;;;;;;;3.50;1.33;;;11.90;99.90;;;;;;5242611;28;20527;-50
2022/09/16 00:25:07;;;;;;;2.10;1.40;;;11.90;99.90;;;;;;5254170;28;20523;-47
2022/09/16 00:27:37;;;;;;;6.23;1.10;;;11.90;99.90;;;;;;5244221;28;20778;-48
2022/09/16 00:30:08;;;;;;;2.50;1.00;;;11.90;99.90;;;;;;5243120;28;20551;-48
2022/09/16 00:32:39;;;;;;;2.50;1.00;;;11.90;99.90;;;;;;5244916;28;20563;-49
2022/09/16 00:35:09;;;;;;;0.80;0.80;;;11.80;99.90;;;;;;5226576;28;20440;-48
2022/09/16 00:37:40;;;;;;;8.80;1.33;;;11.80;99.90;;;;;;5242495;28;20217;-49
2022/09/16 00:40:10;;;;;;;6.10;1.60;;;11.80;99.90;;;;;;5245331;28;20217;-50
2022/09/16 00:42:41;;;;;;;1.90;1.20;;;11.60;99.90;;;;;;5239964;28;20187;-49
2022/09/16 00:45:23;;;;;;;5.40;2.23;;;11.70;99.90;;;;;;5243561;28;20203;-49
2022/09/16 00:47:58;;;;;;;2.10;1.90;;;11.70;99.90;;;;;;5252338;28;20262;-47
2022/09/16 00:50:36;;;;;;;3.30;1.87;;;11.60;99.90;;;;;;5250697;28;20447;-49
2022/09/16 00:53:16;;;;;;;1.70;1.53;;;11.60;99.90;;;;;;5252270;28;20483;-49
2022/09/16 00:55:48;;;;;;;1.10;1.10;;;11.60;99.90;;;;;;5248296;28;20448;-48
2022/09/16 00:58:24;;;;;;;6.23;1.77;;;11.60;99.90;;;;;;5236414;28;20424;-48
2022/09/16 01:00:55;;;;;;;2.83;1.33;;;11.60;99.90;;;;;;5232656;28;20848;-49
2022/09/16 01:03:29;;;;;;;1.60;1.50;;;11.60;99.90;;;;;;5226349;28;20432;-48
2022/09/16 01:05:59;;;;;;;1.77;1.30;;;11.50;99.90;;;;;;5247013;28;20224;-48
2022/09/16 01:08:32;;;;;;;1.77;1.30;;;11.60;99.90;;;;;;5249972;28;20433;-48
2022/09/16 01:11:03;;;;;;;7.43;1.70;;;11.50;99.90;;;;;;5232335;28;20182;-50
2022/09/16 01:13:35;;;;;;;3.77;1.30;;;11.50;99.90;;;;;;5241571;28;20464;-48
2022/09/16 01:16:22;;;;;;;4.63;1.50;;;11.40;99.90;;;;;;5239241;28;20199;-48
2022/09/16 01:19:14;;;;;;;6.67;1.80;;;11.40;99.90;;;;;;5245427;28;20452;-48
2022/09/16 01:22:09;;;;;;;3.50;1.40;;;11.40;99.90;;;;;;5238784;28;20459;-47
2022/09/16 01:25:12;;;;;;;3.47;1.80;;;11.40;99.90;;;;;;5244876;28;20446;-47
2022/09/16 01:28:07;;;;;;;3.60;1.30;;;11.40;99.90;;;;;;5241392;28;20439;-49
2022/09/16 01:30:54;;;;;;;4.57;1.13;;;11.30;99.90;;;;;;5229797;28;20437;-51
2022/09/16 01:33:30;;;;;;;11.07;1.80;;;11.30;99.90;;;;;;5240712;28;20500;-48
2022/09/16 01:36:36;;;;;;;1.80;1.43;;;11.30;99.90;;;;;;5252614;28;20782;-50
2022/09/16 01:39:21;;;;;;;3.47;1.50;;;11.30;99.90;;;;;;5247831;28;20755;-47
2022/09/16 01:42:16;;;;;;;7.97;4.57;;;11.30;99.90;;;;;;5245916;28;20437;-48
2022/09/16 01:45:05;;;;;;;5.47;1.97;;;11.30;99.90;;;;;;5259447;28;20431;-49
2022/09/16 01:47:55;;;;;;;8.17;2.50;;;11.20;99.90;;;;;;5226247;28;20421;-49
2022/09/16 01:50:33;;;;;;;4.83;1.73;;;11.20;99.90;;;;;;5231797;28;20925;-49
2022/09/16 01:53:22;;;;;;;4.13;1.60;;;11.20;99.90;;;;;;5237109;28;21029;-50
2022/09/16 01:56:05;;;;;;;6.07;1.93;;;11.20;99.90;;;;;;5244583;28;20476;-48
2022/09/16 01:58:44;;;;;;;6.00;2.10;;;11.10;99.90;;;;;;5232706;28;20425;-49
2022/09/16 02:01:23;;;;;;;4.83;1.73;;;11.10;99.90;;;;;;5235613;28;20436;-48
2022/09/16 02:03:58;;;;;;;2.70;1.50;;;11.20;99.90;;;;;;5238380;28;20437;-48
2022/09/16 02:06:31;;;;;;;1.90;1.77;;;11.10;99.90;;;;;;5240502;28;20476;-49
2022/09/16 02:09:05;;;;;;;2.20;1.83;;;11.10;99.90;;;;;;5245419;28;20445;-49
2022/09/16 02:11:38;;;;;;;2.17;2.00;;;11.10;99.90;;;;;;5241141;28;20520;-50
2022/09/16 02:14:19;;;;;;;3.70;2.70;;;11.00;99.90;;;;;;5247818;28;20558;-48
2022/09/16 02:16:59;;;;;;;5.33;2.60;;;11.10;99.90;;;;;;5243579;28;20467;-49
2022/09/16 02:19:43;;;;;;;7.40;1.60;;;11.10;99.90;;;;;;5244073;28;20516;-48
2022/09/16 02:22:35;;;;;;;1.60;1.60;;;11.10;99.90;;;;;;5244688;28;20428;-49
2022/09/16 02:25:07;;;;;;;3.43;1.97;;;11.00;99.90;;;;;;5236851;28;20449;-48
2022/09/16 02:27:40;;;;;;;3.37;2.20;;;11.00;99.90;;;;;;5255639;28;20553;-48
2022/09/16 02:30:15;;;;;;;3.60;2.50;;;11.00;99.90;;;;;;5233739;28;20438;-48
2022/09/16 02:32:55;;;;;;;6.50;3.13;;;11.00;99.90;;;;;;5247315;28;20453;-50
2022/09/16 02:35:27;;;;;;;2.40;2.30;;;11.00;99.90;;;;;;5248282;28;20448;-49
2022/09/16 02:38:03;;;;;;;2.73;2.30;;;11.00;99.90;;;;;;5244306;28;20436;-47
2022/09/16 02:40:40;;;;;;;2.37;2.17;;;11.00;99.90;;;;;;5240819;28;20439;-46
2022/09/16 02:43:11;;;;;;;3.93;3.03;;;11.00;99.90;;;;;;5232647;28;20446;-48
2022/09/16 02:45:50;;;;;;;13.47;3.60;;;11.00;99.90;;;;;;5233190;28;20457;-48
2022/09/16 02:48:34;;;;;;;12.30;3.47;;;10.90;99.90;;;;;;5259824;28;20185;-49
2022/09/16 02:51:19;;;;;;;11.43;3.37;;;10.90;99.90;;;;;;5244894;28;20440;-48
2022/09/16 02:54:16;;;;;;;3.00;2.43;;;10.90;99.90;;;;;;5247326;28;20968;-48
2022/09/16 02:56:46;;;;;;;5.00;2.37;;;10.90;99.90;;;;;;5235246;28;20579;-46
2022/09/16 02:59:17;;;;;;;3.07;2.10;;;10.90;99.90;;;;;;5247399;28;20948;-48
2022/09/16 03:01:47;;;;;;;5.27;3.03;;;10.90;99.90;;;;;;5234992;28;20180;-47
2022/09/16 03:04:19;;;;;;;4.40;2.77;;;10.90;99.90;;;;;;5242091;28;20190;-47
2022/09/16 03:06:50;;;;;;;8.83;2.93;;;10.90;99.90;;;;;;5250078;28;20308;-48
2022/09/16 03:09:22;;;;;;;3.73;2.50;;;10.90;99.90;;;;;;5242478;28;20509;-49
2022/09/16 03:12:06;;;;;;;11.80;2.53;;;10.80;99.90;;;;;;5232705;28;20182;-49
2022/09/16 03:14:56;;;;;;;3.53;2.80;;;10.80;99.90;;;;;;5242859;28;20544;-48
2022/09/16 03:17:38;;;;;;;8.20;3.23;;;10.80;99.90;;;;;;5251671;28;20457;-48
2022/09/16 03:20:29;;;;;;;5.10;2.80;;;10.80;99.90;;;;;;5240514;28;20428;-48
2022/09/16 03:23:30;;;;;;;6.80;4.07;;;10.80;99.90;;;;;;5246537;28;20852;-49
2022/09/16 03:26:07;;;;;;;3.30;3.03;;;10.80;99.90;;;;;;5247082;28;20557;-50
2022/09/16 03:28:53;;;;;;;3.10;2.87;;;10.80;99.90;;;;;;5247249;28;20438;-47
2022/09/16 03:31:35;;;;;;;5.60;3.80;;;10.80;99.90;;;;;;5239313;28;20463;-47
2022/09/16 03:34:17;;;;;;;7.10;3.00;;;10.80;99.90;;;;;;5246233;28;20462;-50
2022/09/16 03:37:01;;;;;;;2.40;2.30;;;10.90;99.90;;;;;;5240338;28;20456;-48
2022/09/16 03:39:32;;;;;;;3.80;2.50;;;11.00;99.90;;;;;;5257062;28;20425;-48
2022/09/16 03:42:10;;;;;;;3.23;2.20;;;11.00;99.90;;;;;;5254744;28;20415;-49
2022/09/16 03:44:41;;;;;;;3.50;2.20;;;11.00;99.90;;;;;;5242230;28;20544;-48
2022/09/16 03:47:12;;;;;;;5.50;1.93;;;11.10;99.90;;;;;;5246442;28;20436;-48
2022/09/16 03:49:43;;;;;;;2.97;2.30;;;11.10;99.90;;;;;;5247133;28;21008;-48
2022/09/16 03:52:16;;;;;;;3.70;2.33;;;11.10;99.90;;;;;;5244359;28;20464;-48
2022/09/16 03:54:46;;;;;;;3.40;1.90;;;11.00;99.90;;;;;;5239327;28;20206;-48
2022/09/16 03:57:17;;;;;;;6.23;2.63;;;11.10;99.90;;;;;;5245097;28;20955;-49
2022/09/16 03:59:47;;;;;;;3.67;2.27;;;11.00;99.90;;;;;;5238002;28;20686;-49
2022/09/16 04:02:18;;;;;;;8.17;2.40;;;11.10;99.90;;;;;;5261590;28;20205;-47
2022/09/16 04:04:48;;;;;;;5.80;2.83;;;11.10;99.90;;;;;;5228308;28;20191;-47
2022/09/16 04:07:19;;;;;;;7.07;2.03;;;11.20;99.90;;;;;;5241957;28;20343;-50
2022/09/16 04:09:49;;;;;;;8.07;2.30;;;11.30;99.90;;;;;;5235779;28;20195;-52
2022/09/16 04:12:20;;;;;;;6.33;3.30;;;11.30;99.90;;;;;;5247033;28;20178;-52
2022/09/16 04:14:50;;;;;;;4.80;2.63;;;11.30;99.90;;;;;;5244544;28;20543;-54
2022/09/16 04:17:21;;;;;;;5.37;2.10;;;11.20;99.90;;;;;;5245617;28;20186;-53
2022/09/16 04:19:52;;;;;;;4.47;2.20;;;11.10;99.90;;;;;;5245652;28;20182;-53
2022/09/16 04:22:22;;;;;;;6.23;3.57;;;11.10;99.90;;;;;;5249553;28;20190;-51
2022/09/16 04:24:53;;;;;;;5.80;3.30;;;11.10;99.90;;;;;;5247056;28;20197;-52
2022/09/16 04:27:24;;;;;;;10.30;2.53;;;11.10;99.90;;;;;;5246998;28;20187;-52
2022/09/16 04:29:55;;;;;;;7.60;3.60;;;11.10;99.90;;;;;;5248125;28;20178;-51
2022/09/16 04:32:25;;;;;;;5.23;3.50;;;11.00;99.90;;;;;;5249349;28;20999;-52
2022/09/16 04:34:56;;;;;;;4.40;3.30;;;11.00;99.90;;;;;;5248855;28;20541;-51
2022/09/16 04:37:30;;;;;;;2.80;2.60;;;11.00;99.90;;;;;;5250966;28;20677;-52
2022/09/16 04:40:00;;;;;;;3.43;2.33;;;11.00;99.90;;;;;;5244459;28;20175;-52
2022/09/16 04:42:31;;;;;;;16.03;2.33;;;11.00;99.90;;;;;;5246702;28;21008;-52
2022/09/16 04:45:02;;;;;;;9.13;2.20;;;11.00;99.90;;;;;;5250175;28;20209;-53
2022/09/16 04:47:32;;;;;;;4.80;2.30;;;10.90;99.90;;;;;;5236596;28;20209;-52
2022/09/16 04:50:04;;;;;;;2.37;2.17;;;10.90;99.90;;;;;;5230753;28;20178;-53
2022/09/16 04:52:35;;;;;;;8.33;2.23;;;10.90;99.90;;;;;;5249609;28;20205;-51
2022/09/16 04:55:06;;;;;;;2.83;2.40;;;10.90;99.90;;;;;;5253782;28;20452;-52
2022/09/16 04:57:36;;;;;;;6.80;2.57;;;10.90;99.90;;;;;;5237341;28;20524;-51
2022/09/16 05:00:08;;;;;;;4.20;2.43;;;10.90;99.90;;;;;;5246451;28;20512;-52
2022/09/16 05:02:38;;;;;;;6.23;1.77;;;11.00;99.90;;;;;;5247796;28;20519;-53
2022/09/16 05:05:09;;;;;;;3.37;2.00;;;11.00;99.90;;;;;;5246893;28;20456;-52
2022/09/16 05:07:40;;;;;;;6.33;2.30;;;11.20;99.90;;;;;;5252548;28;20281;-52
2022/09/16 05:10:10;;;;;;;4.03;2.33;;;11.20;99.90;;;;;;5260094;28;20170;-54
2022/09/16 05:12:42;;;;;;;3.60;2.07;;;11.30;99.90;;;;;;5248441;28;20194;-53
2022/09/16 05:15:13;;;;;;;4.50;1.70;;;11.40;99.90;;;;;;5241850;28;21036;-52
2022/09/16 05:17:44;;;;;;;4.67;1.60;;;11.50;99.90;;;;;;5248592;28;20182;-53
2022/09/16 05:20:16;;;;;;;3.20;1.50;;;11.50;99.90;;;;;;5245683;28;20182;-51
2022/09/16 05:22:49;;;;;;;6.33;2.00;;;11.50;99.90;;;;;;5249564;28;20524;-50
2022/09/16 05:25:20;;;;;;;5.97;1.90;;;11.50;99.90;;;;;;5244079;28;20532;-51
2022/09/16 05:27:50;;;;;;;4.93;1.90;;;11.40;99.90;;;;;;5256951;28;20519;-53
2022/09/16 05:30:21;;;;;;;2.83;1.73;;;11.50;99.90;;;;;;5248683;28;20178;-50
2022/09/16 05:32:53;;;;;;;4.63;2.30;;;11.50;99.90;;;;;;5248007;28;20283;-50
2022/09/16 05:35:24;;;;;;;4.53;1.67;;;11.70;99.90;;;;;;5243178;28;20260;-49
2022/09/16 05:37:54;;;;;;;7.23;1.47;;;11.80;99.90;;;;;;5244310;28;20957;-50
2022/09/16 05:40:26;;;;;;;10.93;2.70;;;11.90;99.90;;;;;;5244595;28;20689;-51
2022/09/16 05:42:57;;;;;;;9.30;2.00;;;12.00;99.90;;;;;;5240871;28;20224;-50
2022/09/16 05:45:27;;;;;;;8.97;2.43;;;12.00;99.90;;;;;;5257155;28;20753;-49
2022/09/16 05:47:58;;;;;;;14.33;2.00;;;12.10;99.90;;;;;;5231863;28;20179;-50
2022/09/16 05:50:28;;;;;;;6.60;1.97;;;12.20;99.90;;;;;;5242170;28;20232;-50
2022/09/16 05:52:59;;;;;;;5.13;1.63;;;12.20;99.90;;;;;;5242171;28;20214;-50
2022/09/16 05:55:29;;;;;;;2.20;2.03;;;12.20;99.90;;;;;;5241897;28;20605;-49
2022/09/16 05:58:00;;;;;;;7.93;2.70;;;12.30;99.90;;;;;;5223519;28;20576;-48
2022/09/16 06:00:30;;;;;;;5.50;1.70;;;12.60;99.90;;;;;;5242926;28;20549;-49
2022/09/16 06:03:01;;;;;;;1.60;1.47;;;13.00;99.90;;;;;;5244667;28;20182;-47
2022/09/16 06:05:32;;;;;;;4.10;2.03;;;13.20;99.90;;;;;;5226611;28;20203;-50
2022/09/16 06:08:02;;;;;;;3.10;1.37;;;14.50;99.90;;;;;;5242163;28;20209;-50
2022/09/16 06:10:40;;;;;;;3.00;1.37;;;15.30;99.90;;;;;;5249100;28;20626;-49
2022/09/16 06:13:10;;;;;;;6.23;2.03;;;15.50;99.90;;;;;;5248472;28;20218;-50
2022/09/16 06:15:53;;;;;;;15.83;1.50;;;15.50;99.90;;;;;;5256318;28;20788;-50
2022/09/16 06:18:26;;;;;;;3.43;1.40;;;14.90;99.90;;;;;;5235984;28;20212;-49
2022/09/16 06:20:57;;;;;;;6.33;1.77;;;15.80;99.90;;;;;;5260888;28;20736;-50
2022/09/16 06:23:28;;;;;;;6.53;1.93;;;16.50;99.90;;;;;;5246376;28;20768;-48
2022/09/16 06:26:06;;;;;;;2.93;1.80;;;16.20;99.90;;;;;;5242128;28;20463;-49
2022/09/16 06:28:37;;;;;;;7.87;1.73;;;15.90;99.90;;;;;;5247776;28;20189;-48
2022/09/16 06:31:12;;;;;;;9.00;1.97;;;16.90;99.90;;;;;;5262287;28;20428;-50
2022/09/16 06:33:43;;;;;;;7.23;2.27;;;17.40;99.90;;;;;;5254264;28;20618;-50
2022/09/16 06:36:16;;;;;;;5.27;1.60;;;17.10;99.90;;;;;;5246852;28;20452;-49
2022/09/16 06:38:48;;;;;;;9.73;3.43;;;16.50;99.90;;;;;;5261690;28;20494;-49
2022/09/16 06:41:20;;;;;;;14.80;2.60;;;16.30;99.90;;;;;;5247597;28;20545;-48
2022/09/16 06:43:51;;;;;;;4.73;1.90;;;16.60;99.90;;;;;;5240230;28;20996;-49
2022/09/16 06:46:24;;;;;;;4.33;2.03;;;16.90;99.90;;;;;;5246317;28;20456;-47
2022/09/16 06:48:56;;;;;;;4.87;1.63;;;16.70;99.90;;;;;;5246995;28;20991;-47
2022/09/16 06:51:30;;;;;;;7.50;2.70;;;16.70;99.90;;;;;;5258975;28;20529;-48
2022/09/16 06:54:06;;;;;;;14.43;3.00;;;18.00;99.90;;;;;;5256702;28;20475;-47
2022/09/16 06:56:38;;;;;;;4.83;2.30;;;18.10;99.90;;;;;;5249397;28;20523;-46
2022/09/16 06:59:10;;;;;;;6.13;2.57;;;17.80;99.70;;;;;;5222864;28;20480;-46
2022/09/16 07:01:40;;;;;;;3.17;2.20;;;18.10;99.60;;;;;;5253121;28;20433;-48
2022/09/16 07:04:12;;;;;;;2.23;1.33;;;18.00;98.80;;;;;;5256101;28;20447;-49
2022/09/16 07:06:44;;;;;;;3.40;1.80;;;17.40;99.20;;;;;;5246288;28;20712;-49
2022/09/16 07:09:15;;;;;;;1.10;1.00;;;16.70;99.90;;;;;;5250359;28;20548;-48
2022/09/16 07:11:47;;;;;;;2.73;1.63;;;16.20;99.90;;;;;;5246846;28;20429;-48
2022/09/16 07:14:18;;;;;;;14.40;1.83;;;16.20;99.90;;;;;;5244583;28;20515;-47
2022/09/16 07:16:48;;;;;;;4.23;2.47;;;16.20;99.90;;;;;;5235160;28;20977;-47
2022/09/16 07:19:19;;;;;;;4.63;1.83;;;16.70;99.90;;;;;;5240763;28;20198;-47
2022/09/16 07:21:50;;;;;;;4.37;2.37;;;17.40;99.90;;;;;;5246577;28;20630;-47
2022/09/16 07:24:20;;;;;;;1.27;1.27;;;17.30;99.90;;;;;;5249113;28;20205;-47
2022/09/16 07:26:51;;;;;;;2.23;2.03;;;17.30;99.90;;;;;;5236286;28;20206;-47
2022/09/16 07:29:22;;;;;;;16.67;3.93;;;17.50;99.90;;;;;;5248629;28;20182;-49
2022/09/16 07:31:52;;;;;;;5.30;1.40;;;17.70;99.70;;;;;;5228358;28;20544;-49
2022/09/16 07:34:23;;;;;;;13.30;1.70;;;19.10;96.60;;;;;;5246434;28;20343;-47
2022/09/16 07:36:55;;;;;;;4.60;1.50;;;20.60;88.00;;;;;;5245251;28;20195;-47
2022/09/16 07:39:26;;;;;;;3.70;2.07;;;22.40;74.10;;;;;;5245481;28;20178;-48
2022/09/16 07:41:57;;;;;;;7.47;1.63;;;22.50;65.60;;;;;;5239235;28;20995;-48
2022/09/16 07:44:27;;;;;;;3.33;1.60;;;21.90;65.40;;;;;;5238484;28;20185;-48
2022/09/16 07:46:58;;;;;;;1.00;0.90;;;22.00;64.90;;;;;;5238247;28;20331;-48
2022/09/16 07:49:29;;;;;;;0.77;0.70;;;22.40;61.30;;;;;;5245520;28;20174;-48
2022/09/16 07:51:59;;;;;;;6.70;1.10;;;21.80;63.30;;;;;;5258184;28;20187;-47
2022/09/16 07:54:30;;;;;;;7.03;1.93;;;22.20;61.50;;;;;;5249662;28;20210;-47
2022/09/16 07:57:01;;;;;;;5.30;1.97;;;21.90;62.20;;;;;;5251735;28;20198;-47
2022/09/16 07:59:31;;;;;;;3.63;1.70;;;22.20;61.10;;;;;;5243794;28;20435;-46
2022/09/16 08:02:02;;;;;;;5.10;1.30;;;21.80;61.60;;;;;;5248348;28;20261;-47
2022/09/16 08:04:32;;;;;;;28.47;4.60;;;21.30;63.30;;;;;;5248729;28;20296;-52
2022/09/16 08:07:05;;;;;;;8.93;1.63;;;20.40;63.60;;;;;;5245161;28;20249;-48
2022/09/16 08:09:36;;;;;;;11.43;1.90;;;19.40;66.70;;;;;;5245675;28;20193;-48
2022/09/16 08:12:09;;;;;;;5.40;1.77;;;18.60;70.00;;;;;;5243679;28;20959;-47
2022/09/16 08:14:40;;;;;;;1.17;0.97;;;18.10;73.90;;;;;;5246181;28;20495;-47
2022/09/16 08:17:11;;;;;;;7.63;1.40;;;17.90;74.60;;;;;;5241076;28;20466;-47
2022/09/16 08:19:42;;;;;;;1.60;1.27;;;17.80;76.60;;;;;;5240130;28;20183;-48
2022/09/16 08:22:12;;;;;;;6.47;1.73;;;17.20;77.20;;;;;;5241852;28;20488;-47
2022/09/16 08:24:43;;;;;;;5.67;1.80;;;17.00;79.60;;;;;;5228644;28;20301;-52
2022/09/16 08:27:13;;;;;;;19.37;2.90;;;17.20;81.80;;;;;;5239762;28;20183;-48
2022/09/16 08:29:44;;;;;;;1.13;0.97;;;17.20;83.80;;;;;;5246414;28;20209;-46
2022/09/16 08:32:15;;;;;;;12.23;2.13;;;17.20;84.20;;;;;;5242694;28;20292;-47
2022/09/16 08:34:46;;;;;;;2.20;1.50;;;17.20;84.50;;;;;;5244763;28;20593;-48
2022/09/16 08:37:16;;;;;;;10.27;2.57;;;17.30;85.20;;;;;;5243584;28;20194;-47
2022/09/16 08:39:47;;;;;;;7.30;1.50;;;17.30;84.70;;;;;;5237030;28;20413;-47
2022/09/16 08:42:37;;;;;;;12.03;1.63;;;17.10;84.20;;;;;;5244397;28;20177;-48
2022/09/16 08:45:40;;;;;;;9.90;1.80;;;17.10;83.90;;;;;;5245948;28;20455;-47
2022/09/16 08:48:23;;;;;;;7.00;1.83;;;17.20;85.10;;;;;;5245344;28;20444;-48
2022/09/16 08:50:56;;;;;;;8.80;1.50;;;17.30;82.00;;;;;;5232480;28;20436;-48
2022/09/16 08:53:51;;;;;;;17.13;2.27;;;17.50;82.70;;;;;;5253066;28;20517;-48
2022/09/16 08:56:26;;;;;;;7.10;1.50;;;17.80;81.40;;;;;;5245524;28;20490;-47
2022/09/16 08:59:00;;;;;;;3.30;1.23;;;17.80;81.20;;;;;;5251457;28;20504;-47
2022/09/16 09:01:38;;;;;;;8.83;1.10;;;17.50;80.70;;;;;;5257741;28;20425;-47
2022/09/16 09:04:15;;;;;;;11.20;1.83;;;17.20;82.10;;;;;;5247895;28;20515;-48
2022/09/16 09:07:25;;;;;;;2.83;1.00;;;16.90;83.40;;;;;;5243484;28;20460;-49
2022/09/16 09:10:14;;;;;;;1.73;1.63;;;16.60;85.00;;;;;;5248218;28;20447;-47
2022/09/16 09:12:50;;;;;;;4.17;1.90;;;16.80;87.00;;;;;;5251943;28;20416;-51
2022/09/16 09:15:37;;;;;;;14.27;1.67;;;17.20;85.20;;;;;;5262298;28;20463;-48
2022/09/16 09:18:19;;;;;;;2.87;1.63;;;17.50;84.80;;;;;;5251908;28;20486;-48
2022/09/16 09:21:07;;;;;;;2.57;2.37;;;17.90;80.80;;;;;;5255835;28;20512;-47
2022/09/16 09:23:57;;;;;;;8.93;3.30;;;18.10;80.70;;;;;;5250615;28;20457;-47
2022/09/16 09:26:37;;;;;;;5.00;2.00;;;18.40;77.60;;;;;;5243558;28;20463;-49
2022/09/16 09:29:23;;;;;;;3.17;0.90;;;18.30;76.10;;;;;;5237221;28;20770;-48
2022/09/16 09:32:20;;;;;;;3.23;0.97;;;18.40;74.50;;;;;;5249787;28;20478;-48
2022/09/16 09:35:05;;;;;;;2.53;1.07;;;18.50;71.90;;;;;;5251542;28;20467;-47
2022/09/16 09:37:53;;;;;;;3.87;1.67;;;18.40;69.50;;;;;;5249358;28;20499;-49
2022/09/16 09:40:40;;;;;;;8.50;1.90;;;18.10;70.30;;;;;;5247463;28;20456;-48
2022/09/16 09:43:19;;;;;;;3.30;1.80;;;17.90;71.40;;;;;;5247006;28;20507;-48
2022/09/16 09:46:04;;;;;;;5.43;1.53;;;18.10;69.90;;;;;;5248153;28;20448;-53
2022/09/16 09:48:43;;;;;;;5.23;1.77;;;18.40;67.60;;;;;;5261188;28;20434;-50
2022/09/16 09:51:30;;;;;;;2.00;1.40;;;18.50;66.40;;;;;;5246376;28;20440;-50
2022/09/16 09:54:14;;;;;;;8.53;2.20;;;18.40;65.60;;;;;;5248071;28;20517;-50
2022/09/16 09:56:47;;;;;;;3.07;1.13;;;18.40;66.70;;;;;;5242602;28;20464;-48
2022/09/16 09:59:29;;;;;;;6.20;1.00;;;18.20;66.50;;;;;;5238464;28;20533;-51
2022/09/16 10:02:00;;;;;;;2.00;1.27;;;18.10;64.40;;;;;;5243721;28;21030;-50
2022/09/16 10:04:38;;;;;;;2.87;1.37;;;17.70;63.20;;;;;;5256789;28;20436;-49
2022/09/16 10:07:12;;;;;;;8.87;2.50;;;17.60;63.20;;;;;;5237209;28;20471;-47
2022/09/16 10:09:57;;;;;;;6.17;1.27;;;17.70;61.50;;;;;;5247133;28;20445;-47
2022/09/16 10:12:34;;;;;;;3.57;1.97;;;17.70;60.70;;;;;;5240976;28;20421;-47
2022/09/16 10:15:05;;;;;;;2.20;1.67;;;17.50;60.90;;;;;;5243567;28;20471;-47
2022/09/16 10:17:36;;;;;;;3.37;1.50;;;17.70;61.60;;;;;;5243613;28;20804;-48
2022/09/16 10:20:26;;;;;;;5.73;2.47;;;17.90;61.30;;;;;;5239675;28;20437;-48
2022/09/16 10:23:01;;;;;;;8.83;2.30;;;18.10;61.30;;;;;;5251894;28;20187;-48
2022/09/16 10:25:32;;;;;;;6.90;2.20;;;18.40;59.50;;;;;;5229052;28;20586;-47
2022/09/16 10:28:16;;;;;;;2.37;1.33;;;18.30;59.40;;;;;;5253498;28;20514;-49
2022/09/16 10:30:55;;;;;;;6.20;1.80;;;18.20;58.60;;;;;;5253788;28;20930;-47
2022/09/16 10:33:41;;;;;;;2.20;1.30;;;18.10;58.90;;;;;;5250182;28;21065;-47
2022/09/16 10:36:26;;;;;;;4.93;2.20;;;18.00;58.90;;;;;;5245133;28;20908;-48
2022/09/16 10:39:00;;;;;;;7.33;2.13;;;17.90;59.00;;;;;;5235708;28;20425;-49
2022/09/16 10:41:45;;;;;;;6.03;2.90;;;17.90;58.90;;;;;;5239121;28;20431;-47
2022/09/16 10:44:28;;;;;;;5.33;2.10;;;17.60;58.60;;;;;;5237818;28;20527;-48
2022/09/16 10:47:14;;;;;;;5.47;2.07;;;17.40;59.60;;;;;;5232060;28;20510;-47
2022/09/16 10:49:52;;;;;;;6.27;1.73;;;17.00;58.00;;;;;;5228877;28;20646;-47
2022/09/16 10:52:28;;;;;;;4.47;1.40;;;17.10;58.50;;;;;;5248494;28;20531;-49
2022/09/16 10:55:22;;;;;;;6.93;1.73;;;17.30;58.50;;;;;;5245703;28;20462;-49
2022/09/16 10:58:04;;;;;;;4.77;1.40;;;17.20;59.00;;;;;;5236696;28;20423;-47
2022/09/16 11:00:57;;;;;;;2.80;2.23;;;17.30;59.40;;;;;;5241081;28;20432;-48
2022/09/16 11:03:54;;;;;;;1.87;1.77;;;17.70;60.20;;;;;;5235727;28;20442;-50
2022/09/16 11:06:56;;;;;;;16.27;2.30;;;18.20;57.70;;;;;;5246158;28;20472;-48
2022/09/16 11:10:02;;;;;;;6.13;2.07;;;18.50;54.90;;;;;;5244129;28;20451;-47
2022/09/16 11:12:58;;;;;;;3.30;1.27;;;18.70;55.20;;;;;;5235055;28;20855;-48
2022/09/16 11:15:54;;;;;;;7.87;2.00;;;18.90;55.60;;;;;;5215893;28;20498;-48
2022/09/16 11:18:30;;;;;;;10.20;4.53;;;18.80;56.00;;;;;;5255303;28;20435;-46
2022/09/16 11:21:39;;;;;;;6.47;2.43;;;18.70;54.90;;;;;;5234631;28;20432;-50
2022/09/16 11:24:37;;;;;;;5.80;2.83;;;18.40;54.50;;;;;;5246665;28;20795;-48
2022/09/16 11:27:17;;;;;;;3.63;1.63;;;18.40;54.80;;;;;;5254548;28;20466;-50
2022/09/16 11:30:02;;;;;;;3.00;1.17;;;18.00;54.70;;;;;;5242384;28;20912;-47
2022/09/16 11:32:48;;;;;;;4.10;1.13;;;17.80;55.40;;;;;;5254766;28;20519;-47
2022/09/16 11:35:31;;;;;;;2.20;1.27;;;17.70;56.30;;;;;;5245093;28;20448;-48
2022/09/16 11:38:37;;;;;;;1.23;1.00;;;17.80;56.60;;;;;;5240639;28;20421;-47
2022/09/16 11:41:48;;;;;;;1.23;0.83;;;17.70;55.50;;;;;;5253478;28;20416;-52
2022/09/16 11:44:43;;;;;;;6.47;1.73;;;17.60;55.90;;;;;;5233358;28;20544;-48
2022/09/16 11:47:30;;;;;;;2.40;1.10;;;17.70;55.40;;;;;;5240531;28;20923;-49
2022/09/16 11:50:05;;;;;;;4.17;2.00;;;17.70;54.70;;;;;;5235554;28;20421;-48
2022/09/16 11:52:35;;;;;;;1.87;1.20;;;17.60;54.90;;;;;;5260277;28;20774;-48
2022/09/16 11:55:17;;;;;;;6.40;1.17;;;17.70;54.80;;;;;;5242115;28;20475;-48
2022/09/16 11:58:02;;;;;;;8.87;1.10;;;17.60;54.80;;;;;;5234732;28;20545;-48
2022/09/16 12:00:37;;;;;;;1.87;1.07;;;17.70;54.90;;;;;;5247532;28;20551;-46
2022/09/16 12:03:19;;;;;;;3.97;1.07;;;17.80;54.80;;;;;;5244466;28;20935;-46
2022/09/16 12:05:55;;;;;;;9.83;2.37;;;17.90;54.60;;;;;;5242116;28;20452;-48
2022/09/16 12:08:39;;;;;;;7.97;1.47;;;18.00;54.60;;;;;;5245566;28;20477;-48
2022/09/16 12:11:20;;;;;;;2.00;0.80;;;17.80;54.70;;;;;;5241577;28;20433;-48
2022/09/16 12:13:58;;;;;;;4.53;1.67;;;17.70;55.00;;;;;;5243998;28;20869;-47
2022/09/16 12:16:40;;;;;;;2.47;2.03;;;17.70;54.50;;;;;;5242098;28;20424;-46
2022/09/16 12:19:27;;;;;;;6.80;2.10;;;17.70;54.90;;;;;;5227480;28;20472;-48
2022/09/16 12:22:09;;;;;;;3.20;1.73;;;17.80;55.00;;;;;;5246608;28;20460;-47
2022/09/16 12:24:45;;;;;;;7.30;2.77;;;17.80;55.20;;;;;;5243362;28;20891;-48
2022/09/16 12:27:51;;;;;;;7.13;0.97;;;17.80;54.90;;;;;;5242695;28;20432;-47
2022/09/16 12:30:27;;;;;;;2.03;1.83;;;17.60;54.50;;;;;;5237892;28;20449;-48
2022/09/16 12:33:16;;;;;;;2.60;1.97;;;17.50;53.50;;;;;;5244357;28;20531;-47
2022/09/16 12:35:56;;;;;;;2.23;0.90;;;17.30;53.50;;;;;;5251308;28;20483;-47
2022/09/16 12:38:27;;;;;;;1.43;1.07;;;17.10;52.10;;;;;;5243870;28;20952;-48
2022/09/16 12:41:18;;;;;;;2.93;0.90;;;17.10;51.90;;;;;;5248163;28;20417;-49
2022/09/16 12:44:20;;;;;;;1.33;1.10;;;17.20;52.70;;;;;;5249710;28;20193;-47
2022/09/16 12:47:04;;;;;;;2.50;1.10;;;17.50;52.70;;;;;;5261154;28;20444;-47
2022/09/16 12:49:55;;;;;;;3.03;1.67;;;17.70;52.30;;;;;;5245889;28;20439;-48
2022/09/16 12:52:56;;;;;;;2.63;0.90;;;17.70;51.50;;;;;;5242540;28;21001;-49
2022/09/16 12:55:45;;;;;;;2.20;1.80;;;17.60;51.00;;;;;;5249785;28;20451;-51
2022/09/16 12:58:51;;;;;;;10.87;4.30;;;17.50;50.90;;;;;;5251225;28;20415;-50
2022/09/16 13:01:48;;;;;;;3.43;2.20;;;17.50;51.50;;;;;;5196617;28;20481;-51
2022/09/16 13:04:25;;;;;;;15.67;1.63;;;17.60;52.10;;;;;;5237384;28;20435;-46
2022/09/16 13:07:00;;;;;;;5.50;1.77;;;17.60;52.50;;;;;;5252455;28;20460;-50
2022/09/16 13:09:37;;;;;;;4.53;2.90;;;17.70;51.50;;;;;;5249267;28;20506;-48
2022/09/16 13:12:21;;;;;;;1.10;1.00;;;17.70;51.20;;;;;;5238760;28;20432;-46
2022/09/16 13:14:58;;;;;;;3.47;2.43;;;17.50;51.10;;;;;;5246625;28;20496;-48
2022/09/16 13:17:39;;;;;;;1.63;1.10;;;17.50;50.70;;;;;;5249764;28;20436;-47
2022/09/16 13:20:34;;;;;;;1.10;1.00;;;17.50;50.60;;;;;;5245864;28;20486;-48
2022/09/16 13:23:36;;;;;;;2.67;0.83;;;17.50;50.30;;;;;;5256308;28;20427;-47
2022/09/16 13:26:08;;;;;;;1.20;1.13;;;17.40;50.10;;;;;;5233129;28;20800;-47
2022/09/16 13:28:44;;;;;;;8.30;1.63;;;17.40;50.00;;;;;;5259537;28;20821;-48
2022/09/16 13:31:17;;;;;;;1.60;0.80;;;17.40;50.10;;;;;;5255052;28;20427;-48
2022/09/16 13:34:02;;;;;;;8.43;1.70;;;17.60;50.10;;;;;;5240669;28;20475;-47
2022/09/16 13:36:33;;;;;;;1.33;1.00;;;17.70;50.10;;;;;;5250549;28;20456;-50
2022/09/16 13:39:09;;;;;;;1.70;0.97;;;17.90;50.20;;;;;;5248819;28;20516;-48
2022/09/16 13:41:45;;;;;;;2.87;1.73;;;18.00;47.90;;;;;;5248770;28;20236;-48